createdAt,value
2022-09-28T14:21:39.784Z,14.31
2022-09-28T14:24:32.289Z,14.06
2022-09-28T14:27:21.108Z,13.97
2022-09-28T14:29:55.756Z,13.87
2022-09-28T14:32:25.252Z,13.86
2022-09-28T14:34:59.627Z,13.87
2022-09-28T14:37:50.725Z,13.84
2022-09-28T14:40:49.584Z,13.72
2022-09-28T14:43:38.434Z,13.61
2022-09-28T14:46:10.043Z,13.57
2022-09-28T14:48:54.122Z,13.51
2022-09-28T14:51:26.815Z,13.50
2022-09-28T14:53:56.445Z,13.47
2022-09-28T14:56:25.465Z,13.47
2022-09-28T14:58:58.104Z,13.41
2022-09-28T15:01:26.089Z,13.46
2022-09-28T15:03:57.070Z,13.42
2022-09-28T15:06:25.069Z,13.43
2022-09-28T15:08:52.060Z,13.40
2022-09-28T15:11:25.509Z,13.40
2022-09-28T15:14:06.515Z,13.43
2022-09-28T15:16:34.164Z,13.41
2022-09-28T15:19:28.977Z,13.39
2022-09-28T15:21:55.893Z,13.38
2022-09-28T15:24:31.852Z,13.35
2022-09-28T15:27:19.420Z,13.30
2022-09-28T15:30:16.000Z,13.27
2022-09-28T15:32:42.750Z,13.24
2022-09-28T15:35:17.281Z,13.22
2022-09-28T15:37:44.949Z,13.18
2022-09-28T15:40:17.650Z,13.18
2022-09-28T15:42:47.371Z,13.16
2022-09-28T15:45:14.149Z,13.15
2022-09-28T15:47:43.646Z,13.12
2022-09-28T15:50:24.280Z,13.10
2022-09-28T15:52:59.118Z,13.07
2022-09-28T15:55:28.568Z,13.06
2022-09-28T15:58:22.663Z,13.03
2022-09-28T16:00:51.075Z,13.08
2022-09-28T16:03:17.901Z,13.06
2022-09-28T16:06:05.582Z,13.03
2022-09-28T16:08:44.031Z,13.06
2022-09-28T16:11:21.224Z,13.15
2022-09-28T16:14:21.689Z,13.21
2022-09-28T16:16:51.321Z,13.19
2022-09-28T16:19:25.411Z,13.28
2022-09-28T16:22:06.369Z,13.55
2022-09-28T16:24:38.718Z,13.41
2022-09-28T16:27:25.880Z,13.28
2022-09-28T16:30:05.172Z,13.17
2022-09-28T16:32:38.566Z,13.09
2022-09-28T16:35:11.071Z,13.03
2022-09-28T16:37:41.779Z,12.97
2022-09-28T16:40:12.609Z,12.95
2022-09-28T16:42:45.478Z,12.92
2022-09-28T16:45:20.476Z,12.87
2022-09-28T16:47:52.868Z,12.83
2022-09-28T16:50:21.671Z,12.76
2022-09-28T16:53:35.707Z,12.74
2022-09-28T16:56:03.906Z,12.68
2022-09-28T16:58:31.599Z,12.67
2022-09-28T17:00:58.975Z,12.55
2022-09-28T17:03:26.919Z,12.67
2022-09-28T17:05:55.192Z,12.61
2022-09-28T17:08:24.018Z,12.61
2022-09-28T17:11:13.927Z,12.57
2022-09-28T17:13:40.951Z,12.51
2022-09-28T17:16:13.429Z,12.46
2022-09-28T17:18:40.776Z,12.43
2022-09-28T17:21:12.709Z,12.40
2022-09-28T17:23:39.495Z,12.37
2022-09-28T17:26:06.595Z,12.34
2022-09-28T17:28:34.122Z,12.27
2022-09-28T17:31:01.727Z,12.18
2022-09-28T17:33:29.298Z,12.14
2022-09-28T17:36:05.019Z,12.10
2022-09-28T17:38:32.425Z,12.08
2022-09-28T17:40:59.145Z,12.08
2022-09-28T17:43:25.942Z,12.07
2022-09-28T17:45:52.871Z,12.08
2022-09-28T17:48:24.262Z,12.07
2022-09-28T17:50:51.242Z,12.05
2022-09-28T17:53:17.922Z,12.10
2022-09-28T17:55:44.600Z,12.13
2022-09-28T17:58:20.048Z,12.13
2022-09-28T18:00:49.701Z,12.18
2022-09-28T18:03:22.333Z,12.13
2022-09-28T18:05:53.649Z,12.20
2022-09-28T18:08:21.242Z,12.26
2022-09-28T18:10:48.257Z,12.24
2022-09-28T18:13:15.222Z,12.25
2022-09-28T18:15:42.785Z,12.25
2022-09-28T18:18:10.053Z,12.24
2022-09-28T18:20:37.820Z,12.25
2022-09-28T18:23:04.992Z,12.25
2022-09-28T18:25:32.206Z,12.24
2022-09-28T18:28:00.129Z,12.23
2022-09-28T18:30:28.002Z,12.23
2022-09-28T18:32:54.790Z,12.17
2022-09-28T18:35:23.244Z,12.16
2022-09-28T18:37:50.444Z,12.15
2022-09-28T18:40:20.966Z,12.12
2022-09-28T18:42:50.947Z,12.02
2022-09-28T18:45:19.142Z,12.02
2022-09-28T18:47:46.456Z,11.98
2022-09-28T18:50:15.818Z,12.01
2022-09-28T18:52:44.423Z,11.85
2022-09-28T18:55:12.721Z,12.00
2022-09-28T18:57:42.826Z,12.05
2022-09-28T19:00:11.815Z,12.08
2022-09-28T19:02:38.775Z,12.08
2022-09-28T19:05:06.960Z,12.04
2022-09-28T19:07:34.849Z,12.04
2022-09-28T19:10:01.938Z,11.98
2022-09-28T19:12:28.615Z,11.95
2022-09-28T19:14:55.358Z,11.88
2022-09-28T19:17:22.077Z,11.83
2022-09-28T19:19:48.868Z,11.69
2022-09-28T19:22:15.556Z,11.80
2022-09-28T19:24:42.249Z,11.81
2022-09-28T19:27:08.965Z,11.71
2022-09-28T19:29:35.714Z,11.84
2022-09-28T19:32:02.599Z,11.85
2022-09-28T19:34:30.221Z,11.85
2022-09-28T19:36:57.289Z,11.87
2022-09-28T19:39:24.201Z,11.90
2022-09-28T19:41:54.319Z,11.93
2022-09-28T19:44:25.850Z,11.97
2022-09-28T19:46:58.684Z,11.98
2022-09-28T19:49:27.377Z,11.99
2022-09-28T19:52:14.425Z,11.97
2022-09-28T19:54:54.439Z,12.02
2022-09-28T19:57:21.404Z,11.98
2022-09-28T19:59:52.337Z,11.91
2022-09-28T20:02:19.850Z,11.92
2022-09-28T20:04:46.656Z,11.87
2022-09-28T20:07:13.952Z,11.84
2022-09-28T20:09:40.510Z,11.81
2022-09-28T20:12:07.242Z,11.72
2022-09-28T20:14:37.993Z,11.68
2022-09-28T20:17:06.356Z,11.62
2022-09-28T20:19:33.582Z,11.66
2022-09-28T20:22:02.885Z,11.65
2022-09-28T20:24:31.282Z,11.69
2022-09-28T20:26:58.204Z,11.72
2022-09-28T20:29:25.307Z,11.74
2022-09-28T20:31:52.234Z,11.73
2022-09-28T20:34:18.972Z,11.65
2022-09-28T20:36:45.689Z,11.63
2022-09-28T20:39:13.458Z,11.62
2022-09-28T20:41:40.334Z,11.59
2022-09-28T20:44:07.505Z,11.63
2022-09-28T20:46:35.091Z,11.63
2022-09-28T20:49:02.362Z,11.62
2022-09-28T20:51:28.976Z,11.59
2022-09-28T20:53:57.610Z,11.54
2022-09-28T20:56:30.537Z,11.56
2022-09-28T20:58:57.664Z,11.59
2022-09-28T21:01:25.846Z,11.61
2022-09-28T21:04:00.816Z,11.63
2022-09-28T21:06:34.120Z,11.61
2022-09-28T21:09:01.294Z,11.62
2022-09-28T21:11:29.533Z,11.62
2022-09-28T21:13:58.628Z,11.57
2022-09-28T21:16:27.079Z,11.62
2022-09-28T21:18:53.847Z,11.60
2022-09-28T21:21:22.424Z,11.62
2022-09-28T21:23:52.581Z,11.56
2022-09-28T21:26:27.551Z,11.61
2022-09-28T21:28:58.129Z,11.60
2022-09-28T21:31:29.207Z,11.56
2022-09-28T21:33:57.742Z,11.54
2022-09-28T21:36:25.546Z,11.56
2022-09-28T21:38:54.452Z,11.56
2022-09-28T21:41:21.173Z,11.55
2022-09-28T21:43:48.054Z,11.51
2022-09-28T21:46:14.771Z,11.52
2022-09-28T21:48:41.591Z,11.50
2022-09-28T21:51:12.582Z,11.50
2022-09-28T21:53:39.609Z,11.48
2022-09-28T21:56:08.943Z,11.40
2022-09-28T21:58:36.137Z,11.37
2022-09-28T22:01:07.878Z,11.35
2022-09-28T22:03:36.658Z,11.32
2022-09-28T22:06:05.316Z,11.31
2022-09-28T22:08:32.992Z,11.27
2022-09-28T22:11:03.196Z,11.29
2022-09-28T22:13:31.982Z,11.27
2022-09-28T22:15:59.224Z,11.23
2022-09-28T22:18:30.062Z,11.19
2022-09-28T22:21:12.008Z,11.18
2022-09-28T22:23:39.843Z,11.13
2022-09-28T22:26:13.177Z,11.09
2022-09-28T22:28:44.972Z,11.07
2022-09-28T22:31:11.736Z,10.94
2022-09-28T22:33:39.931Z,11.06
2022-09-28T22:36:07.911Z,10.99
2022-09-28T22:38:35.367Z,11.14
2022-09-28T22:41:05.379Z,11.11
2022-09-28T22:43:32.212Z,11.11
2022-09-28T22:46:02.156Z,11.13
2022-09-28T22:48:29.316Z,11.14
2022-09-28T22:50:55.871Z,11.21
2022-09-28T22:53:22.740Z,11.23
2022-09-28T22:55:49.465Z,11.24
2022-09-28T22:58:16.515Z,11.20
2022-09-28T23:00:44.558Z,11.21
2022-09-28T23:03:11.375Z,11.22
2022-09-28T23:05:38.121Z,11.18
2022-09-28T23:08:04.840Z,11.20
2022-09-28T23:10:31.634Z,11.18
2022-09-28T23:12:58.455Z,11.11
2022-09-28T23:15:25.796Z,11.12
2022-09-28T23:17:53.305Z,11.13
2022-09-28T23:20:21.276Z,11.13
2022-09-28T23:22:48.693Z,11.14
2022-09-28T23:25:17.116Z,11.17
2022-09-28T23:27:48.867Z,11.17
2022-09-28T23:30:17.355Z,11.15
2022-09-28T23:32:44.881Z,11.17
2022-09-28T23:35:11.716Z,11.14
2022-09-28T23:37:38.686Z,11.12
2022-09-28T23:40:06.852Z,11.12
2022-09-28T23:42:34.885Z,11.11
2022-09-28T23:45:01.793Z,11.09
2022-09-28T23:47:28.578Z,11.03
2022-09-28T23:49:55.269Z,10.93
2022-09-28T23:52:22.054Z,10.95
2022-09-28T23:54:48.729Z,10.89
2022-09-28T23:57:15.413Z,10.90
2022-09-28T23:59:42.112Z,10.84
